createdAt,value
2019-04-26T00:01:18.589Z,13.93
2019-04-26T00:03:48.571Z,14.37
2019-04-26T00:06:18.822Z,14.33
2019-04-26T00:08:56.822Z,14.73
2019-04-26T00:12:00.684Z,15.87
2019-04-26T00:14:47.584Z,13.83
2019-04-26T00:17:35.933Z,14.30
2019-04-26T00:20:06.187Z,14.23
2019-04-26T00:22:35.689Z,14.03
2019-04-26T00:25:05.692Z,14.33
2019-04-26T00:27:35.173Z,15.10
2019-04-26T00:30:04.896Z,14.73
2019-04-26T00:32:34.267Z,14.13
2019-04-26T00:35:03.647Z,14.23
2019-04-26T00:37:33.009Z,14.97
2019-04-26T00:40:02.409Z,14.43
2019-04-26T00:42:33.532Z,15.20
2019-04-26T00:45:02.958Z,14.97
2019-04-26T00:47:32.445Z,14.30
2019-04-26T00:50:02.501Z,14.70
2019-04-26T00:52:33.195Z,14.23
2019-04-26T00:55:03.837Z,14.97
2019-04-26T00:57:34.797Z,14.73
2019-04-26T01:00:05.902Z,16.00
2019-04-26T01:02:43.728Z,15.70
2019-04-26T01:05:13.149Z,15.87
2019-04-26T01:07:44.326Z,15.67
2019-04-26T01:10:13.677Z,15.23
2019-04-26T01:12:43.104Z,15.10
2019-04-26T01:15:12.681Z,14.40
2019-04-26T01:17:42.383Z,15.33
2019-04-26T01:20:12.613Z,14.27
2019-04-26T01:22:46.408Z,14.67
2019-04-26T01:25:46.931Z,15.30
2019-04-26T01:28:23.386Z,14.77
2019-04-26T01:30:54.924Z,14.97
2019-04-26T01:33:24.761Z,15.07
2019-04-26T01:35:54.355Z,15.70
2019-04-26T01:38:23.888Z,15.30
2019-04-26T01:40:55.944Z,14.90
2019-04-26T01:43:47.227Z,16.47
2019-04-26T01:46:25.288Z,16.10
2019-04-26T01:49:02.487Z,16.47
2019-04-26T01:51:47.118Z,17.50
2019-04-26T01:54:19.676Z,15.67
2019-04-26T01:56:51.879Z,16.37
2019-04-26T01:59:22.690Z,15.63
2019-04-26T02:02:00.742Z,16.63
2019-04-26T02:04:32.542Z,17.43
2019-04-26T02:07:02.374Z,17.17
2019-04-26T02:09:32.768Z,16.87
2019-04-26T02:12:02.984Z,16.83
2019-04-26T02:14:33.324Z,17.47
2019-04-26T02:17:03.002Z,16.83
2019-04-26T02:19:33.735Z,16.90
2019-04-26T02:22:16.413Z,16.93
2019-04-26T02:24:47.586Z,16.83
2019-04-26T02:27:26.329Z,16.40
2019-04-26T02:29:56.752Z,16.43
2019-04-26T02:32:27.212Z,17.13
2019-04-26T02:34:58.473Z,18.77
2019-04-26T02:37:28.760Z,17.53
2019-04-26T02:39:59.271Z,16.73
2019-04-26T02:42:41.386Z,17.23
2019-04-26T02:46:00.310Z,16.97
2019-04-26T02:49:14.815Z,16.63
2019-04-26T02:51:51.202Z,17.03
2019-04-26T02:54:46.864Z,16.47
2019-04-26T02:57:36.627Z,16.90
2019-04-26T03:00:10.271Z,17.10
2019-04-26T03:02:40.441Z,17.13
2019-04-26T03:05:10.880Z,16.10
2019-04-26T03:08:15.792Z,17.03
2019-04-26T03:10:49.681Z,18.47
2019-04-26T03:13:40.922Z,19.90
2019-04-26T03:16:32.778Z,22.40
2019-04-26T03:19:27.486Z,17.73
2019-04-26T03:22:06.859Z,18.10
2019-04-26T03:24:56.374Z,15.20
2019-04-26T03:27:41.013Z,14.10
2019-04-26T03:30:41.469Z,15.50
2019-04-26T03:33:53.183Z,15.10
2019-04-26T03:36:35.407Z,15.20
2019-04-26T03:39:26.064Z,14.67
2019-04-26T03:42:11.968Z,15.53
2019-04-26T03:44:53.444Z,14.73
2019-04-26T03:47:25.591Z,15.90
2019-04-26T03:50:22.779Z,16.03
2019-04-26T03:53:08.797Z,16.13
2019-04-26T03:56:28.112Z,16.37
2019-04-26T03:59:45.927Z,15.43
2019-04-26T04:02:37.389Z,14.80
2019-04-26T04:05:22.169Z,15.87
2019-04-26T04:07:54.431Z,18.30
2019-04-26T04:10:26.881Z,17.03
2019-04-26T04:13:04.939Z,18.23
2019-04-26T04:15:44.068Z,15.97
2019-04-26T04:18:20.282Z,15.60
2019-04-26T04:21:34.091Z,15.80
2019-04-26T04:24:13.541Z,16.47
2019-04-26T04:27:25.732Z,16.77
2019-04-26T04:30:26.882Z,16.00
2019-04-26T04:33:22.819Z,14.73
2019-04-26T04:35:56.434Z,15.10
2019-04-26T04:38:38.061Z,15.83
2019-04-26T04:41:28.535Z,16.30
2019-04-26T04:44:27.541Z,15.97
2019-04-26T04:47:31.471Z,17.30
2019-04-26T04:50:33.329Z,16.80
2019-04-26T04:53:25.396Z,16.83
2019-04-26T04:56:33.498Z,16.17
2019-04-26T04:59:07.091Z,15.93
2019-04-26T05:02:25.064Z,16.43
2019-04-26T05:05:49.058Z,15.87
2019-04-26T05:08:34.598Z,16.20
2019-04-26T05:11:13.878Z,16.33
2019-04-26T05:13:48.570Z,16.77
2019-04-26T05:16:52.581Z,16.43
2019-04-26T05:19:52.803Z,16.37
2019-04-26T05:23:14.435Z,17.17
2019-04-26T05:26:46.117Z,17.23
2019-04-26T05:30:02.556Z,18.50
2019-04-26T05:33:17.810Z,18.27
2019-04-26T05:36:37.754Z,18.50
2019-04-26T05:39:30.417Z,18.83
2019-04-26T05:42:23.961Z,18.13
2019-04-26T05:45:44.505Z,18.53
2019-04-26T05:49:02.842Z,18.50
2019-04-26T05:52:04.560Z,18.80
2019-04-26T05:55:16.104Z,18.57
2019-04-26T05:58:33.227Z,18.67
2019-04-26T06:01:54.880Z,18.73
2019-04-26T06:05:08.232Z,20.60
2019-04-26T06:08:06.546Z,20.20
2019-04-26T06:10:47.402Z,18.87
2019-04-26T06:14:30.704Z,19.90
2019-04-26T06:17:22.883Z,21.50
2019-04-26T06:20:35.322Z,19.93
2019-04-26T06:23:27.283Z,19.93
2019-04-26T06:26:08.790Z,19.00
2019-04-26T06:29:06.341Z,19.17
2019-04-26T06:31:41.774Z,25.70
2019-04-26T06:34:26.117Z,20.20
2019-04-26T06:37:11.671Z,20.02
2019-04-26T06:39:59.944Z,21.15
2019-04-26T06:43:02.798Z,19.95
2019-04-26T06:46:06.045Z,20.95
2019-04-26T06:49:15.599Z,20.25
2019-04-26T06:51:51.183Z,19.40
2019-04-26T06:54:43.824Z,20.27
2019-04-26T06:58:19.045Z,20.90
2019-04-26T07:01:09.569Z,21.65
2019-04-26T07:03:52.409Z,22.82
2019-04-26T07:06:34.794Z,20.88
2019-04-26T07:09:09.850Z,21.02
2019-04-26T07:12:25.081Z,20.90
2019-04-26T07:15:28.416Z,19.37
2019-04-26T07:18:12.831Z,20.43
2019-04-26T07:21:09.180Z,18.20
2019-04-26T07:24:53.134Z,19.20
2019-04-26T07:27:38.007Z,18.52
2019-04-26T07:30:23.425Z,18.77
2019-04-26T07:33:22.358Z,19.12
2019-04-26T07:36:41.963Z,19.48
2019-04-26T07:39:31.939Z,18.05
2019-04-26T07:42:54.014Z,19.50
2019-04-26T07:46:01.345Z,16.12
2019-04-26T07:49:03.187Z,15.45
2019-04-26T07:52:20.265Z,16.10
2019-04-26T07:55:23.480Z,19.60
2019-04-26T07:58:35.617Z,15.80
2019-04-26T08:01:22.941Z,16.30
2019-04-26T08:04:05.294Z,17.00
2019-04-26T08:06:56.122Z,14.95
2019-04-26T08:09:28.234Z,14.73
2019-04-26T08:12:06.048Z,14.23
2019-04-26T08:14:49.572Z,16.05
2019-04-26T08:17:46.812Z,15.38
2019-04-26T08:20:38.999Z,15.40
2019-04-26T08:23:28.175Z,12.90
2019-04-26T08:25:43.999Z,14.23
2019-04-26T08:28:17.407Z,13.70
2019-04-26T08:30:50.303Z,13.85
2019-04-26T08:33:25.375Z,14.70
2019-04-26T08:35:57.307Z,14.65
2019-04-26T08:38:28.809Z,14.10
2019-04-26T08:41:00.424Z,14.33
2019-04-26T08:43:47.840Z,16.17
2019-04-26T08:46:37.968Z,15.13
2019-04-26T08:49:27.314Z,13.72
2019-04-26T08:51:59.955Z,14.23
2019-04-26T08:54:34.386Z,16.20
2019-04-26T08:57:08.539Z,18.17
2019-04-26T08:59:46.478Z,14.98
2019-04-26T09:02:39.893Z,14.38
2019-04-26T09:05:31.127Z,14.60
2019-04-26T09:08:04.018Z,21.23
2019-04-26T09:10:39.335Z,15.88
2019-04-26T09:13:10.095Z,13.95
2019-04-26T09:16:17.293Z,13.72
2019-04-26T09:18:52.348Z,14.87
2019-04-26T09:21:20.897Z,15.55
2019-04-26T09:24:25.363Z,19.65
2019-04-26T09:27:07.173Z,14.53
2019-04-26T09:29:55.455Z,12.65
2019-04-26T09:32:40.429Z,12.80
2019-04-26T09:35:11.208Z,12.10
2019-04-26T09:37:41.468Z,13.38
2019-04-26T09:40:21.170Z,12.45
2019-04-26T09:42:59.666Z,12.75
2019-04-26T09:45:48.134Z,12.15
2019-04-26T09:48:25.068Z,11.90
2019-04-26T09:50:55.071Z,12.73
2019-04-26T09:53:24.558Z,12.60
2019-04-26T09:55:53.997Z,11.85
2019-04-26T09:58:26.894Z,12.45
2019-04-26T10:00:56.447Z,13.10
2019-04-26T10:03:25.858Z,12.65
2019-04-26T10:05:55.856Z,11.22
2019-04-26T10:08:26.374Z,11.20
2019-04-26T10:10:55.745Z,11.55
2019-04-26T10:13:49.176Z,12.33
2019-04-26T10:16:26.257Z,12.75
2019-04-26T10:19:01.367Z,12.63
2019-04-26T10:21:30.726Z,12.40
2019-04-26T10:24:00.203Z,11.80
2019-04-26T10:26:30.019Z,11.22
2019-04-26T10:28:59.376Z,10.75
2019-04-26T10:31:28.735Z,11.40
2019-04-26T10:33:58.084Z,11.28
2019-04-26T10:36:30.094Z,11.35
2019-04-26T10:38:59.706Z,11.53
2019-04-26T10:41:29.063Z,10.95
2019-04-26T10:43:58.398Z,11.30
2019-04-26T10:46:29.478Z,11.28
2019-04-26T10:49:08.947Z,11.65
2019-04-26T10:51:38.573Z,10.90
2019-04-26T10:54:15.712Z,11.48
2019-04-26T10:56:56.356Z,11.22
2019-04-26T10:59:44.054Z,12.33
2019-04-26T11:02:17.883Z,11.05
2019-04-26T11:04:47.680Z,10.65
2019-04-26T11:07:17.085Z,12.75
2019-04-26T11:09:46.475Z,12.07
2019-04-26T11:12:17.592Z,11.25
2019-04-26T11:14:46.963Z,10.90
2019-04-26T11:17:17.835Z,10.78
2019-04-26T11:19:47.759Z,11.38
2019-04-26T11:22:28.618Z,10.63
2019-04-26T11:24:53.429Z,11.10
2019-04-26T11:27:21.055Z,11.78
2019-04-26T11:29:53.906Z,11.00
2019-04-26T11:32:21.511Z,10.13
2019-04-26T11:34:54.453Z,10.15
2019-04-26T11:37:22.111Z,9.78
2019-04-26T11:39:52.463Z,9.95
2019-04-26T11:42:22.309Z,9.13
2019-04-26T11:44:51.708Z,12.28
2019-04-26T11:47:21.676Z,11.20
2019-04-26T11:49:51.918Z,9.73
2019-04-26T11:52:21.309Z,9.73
2019-04-26T11:54:51.215Z,9.28
2019-04-26T11:57:22.526Z,9.90
2019-04-26T11:59:52.269Z,10.60
2019-04-26T12:02:21.681Z,11.00
2019-04-26T12:04:59.595Z,10.13
2019-04-26T12:07:39.172Z,10.98
2019-04-26T12:10:09.877Z,10.93
2019-04-26T12:12:43.151Z,10.68
2019-04-26T12:15:11.232Z,11.70
2019-04-26T12:17:41.018Z,10.70
2019-04-26T12:20:10.404Z,11.93
2019-04-26T12:22:43.261Z,10.10
2019-04-26T12:25:12.506Z,10.60
2019-04-26T12:27:42.473Z,8.95
2019-04-26T12:30:12.682Z,10.08
2019-04-26T12:32:42.071Z,10.72
2019-04-26T12:35:11.554Z,9.45
2019-04-26T12:37:41.002Z,10.30
2019-04-26T12:40:11.214Z,10.30
2019-04-26T12:42:43.369Z,8.98
2019-04-26T12:45:31.781Z,10.45
2019-04-26T12:48:02.297Z,10.05
2019-04-26T12:50:36.464Z,11.00
2019-04-26T12:53:02.774Z,9.70
2019-04-26T12:55:32.213Z,9.75
2019-04-26T12:58:01.622Z,8.75
2019-04-26T13:00:33.166Z,10.30
2019-04-26T13:03:04.045Z,9.08
2019-04-26T13:05:33.432Z,9.85
2019-04-26T13:08:02.802Z,10.25
2019-04-26T13:10:53.989Z,9.00
2019-04-26T13:13:27.484Z,9.05
2019-04-26T13:16:21.505Z,9.30
2019-04-26T13:18:50.657Z,8.03
2019-04-26T13:21:20.058Z,8.73
2019-04-26T13:23:49.443Z,8.88
2019-04-26T13:26:18.825Z,10.98
2019-04-26T13:28:48.225Z,10.13
2019-04-26T13:31:17.668Z,10.05
2019-04-26T13:33:47.029Z,8.98
2019-04-26T13:36:16.465Z,7.40
2019-04-26T13:38:46.816Z,8.90
2019-04-26T13:41:16.353Z,10.00
2019-04-26T13:43:45.804Z,8.58
2019-04-26T13:46:36.156Z,8.60
2019-04-26T13:49:36.797Z,7.78
2019-04-26T13:52:06.213Z,7.65
2019-04-26T13:54:35.632Z,11.60
2019-04-26T13:57:06.105Z,11.43
2019-04-26T13:59:36.204Z,8.58
2019-04-26T14:02:11.590Z,8.10
2019-04-26T14:04:37.237Z,8.33
2019-04-26T14:07:07.868Z,8.98
2019-04-26T14:09:37.222Z,7.90
2019-04-26T14:12:18.357Z,9.53
2019-04-26T14:14:39.444Z,8.40
2019-04-26T14:17:09.660Z,7.53
2019-04-26T14:19:39.006Z,11.12
2019-04-26T14:22:08.564Z,8.70
2019-04-26T14:24:46.649Z,7.78
2019-04-26T14:27:34.912Z,9.03
2019-04-26T14:30:06.620Z,8.75
2019-04-26T14:32:36.222Z,7.10
2019-04-26T14:35:05.995Z,7.20
2019-04-26T14:37:35.374Z,8.08
2019-04-26T14:40:16.717Z,7.85
2019-04-26T14:42:42.222Z,8.73
2019-04-26T14:45:07.517Z,6.87
2019-04-26T14:47:46.837Z,7.75
2019-04-26T14:50:14.110Z,7.35
2019-04-26T14:52:39.249Z,8.25
2019-04-26T14:55:08.607Z,8.95
2019-04-26T14:57:37.964Z,7.97
2019-04-26T15:00:09.942Z,7.78
2019-04-26T15:02:55.995Z,7.95
2019-04-26T15:05:46.307Z,7.08
2019-04-26T15:08:13.890Z,7.40
2019-04-26T15:10:48.106Z,7.28
2019-04-26T15:13:20.208Z,7.15
2019-04-26T15:15:46.222Z,7.00
2019-04-26T15:18:15.759Z,6.87
2019-04-26T15:20:45.101Z,6.80
2019-04-26T15:23:14.444Z,7.00
2019-04-26T15:25:48.303Z,7.53
2019-04-26T15:28:14.843Z,7.33
2019-04-26T15:30:46.852Z,7.22
2019-04-26T15:33:15.372Z,7.17
2019-04-26T15:35:45.377Z,7.15
2019-04-26T15:38:14.758Z,7.00
2019-04-26T15:41:05.545Z,6.30
2019-04-26T15:43:57.362Z,6.90
2019-04-26T15:46:48.670Z,6.47
2019-04-26T15:49:32.233Z,6.93
2019-04-26T15:52:00.894Z,7.13
2019-04-26T15:54:33.625Z,7.20
2019-04-26T15:57:03.053Z,8.90
2019-04-26T15:59:35.328Z,7.13
2019-04-26T16:02:04.809Z,7.20
2019-04-26T16:04:34.336Z,7.20
2019-04-26T16:07:03.754Z,9.13
2019-04-26T16:09:34.955Z,9.20
2019-04-26T16:12:04.353Z,8.53
2019-04-26T16:14:36.436Z,8.93
2019-04-26T16:17:06.548Z,9.17
2019-04-26T16:19:35.802Z,9.47
2019-04-26T16:22:05.772Z,8.90
2019-04-26T16:24:35.116Z,9.27
2019-04-26T16:27:04.574Z,9.30
2019-04-26T16:29:59.666Z,8.47
2019-04-26T16:33:03.315Z,9.27
2019-04-26T16:35:32.755Z,8.83
2019-04-26T16:38:22.472Z,9.40
2019-04-26T16:40:53.510Z,9.00
2019-04-26T16:43:36.999Z,9.20
2019-04-26T16:45:54.462Z,9.37
2019-04-26T16:48:25.724Z,8.93
2019-04-26T16:50:54.987Z,8.33
2019-04-26T16:53:43.708Z,9.07
2019-04-26T16:55:57.741Z,9.60
2019-04-26T16:58:30.929Z,9.60
2019-04-26T17:00:58.371Z,10.27
2019-04-26T17:03:27.782Z,9.10
2019-04-26T17:06:05.259Z,8.37
2019-04-26T17:08:28.218Z,8.83
2019-04-26T17:11:00.752Z,9.00
2019-04-26T17:13:29.897Z,8.47
2019-04-26T17:16:00.036Z,9.23
2019-04-26T17:18:29.348Z,9.03
2019-04-26T17:20:58.762Z,9.33
2019-04-26T17:23:47.052Z,8.83
2019-04-26T17:26:42.778Z,8.73
2019-04-26T17:29:12.569Z,8.47
2019-04-26T17:31:43.117Z,8.10
2019-04-26T17:34:14.954Z,9.93
2019-04-26T17:36:46.402Z,9.50
2019-04-26T17:39:17.311Z,9.10
2019-04-26T17:41:51.830Z,9.33
2019-04-26T17:44:20.377Z,10.63
2019-04-26T17:46:56.373Z,9.57
2019-04-26T17:49:22.638Z,9.00
2019-04-26T17:51:57.694Z,8.67
2019-04-26T17:54:41.471Z,8.23
2019-04-26T17:56:53.701Z,10.27
2019-04-26T17:59:33.405Z,8.97
2019-04-26T18:02:01.193Z,9.27
2019-04-26T18:04:36.065Z,9.23
2019-04-26T18:07:03.835Z,9.53
2019-04-26T18:09:45.941Z,9.97
2019-04-26T18:12:04.727Z,9.60
2019-04-26T18:14:34.144Z,9.27
2019-04-26T18:17:17.855Z,9.20
2019-04-26T18:19:54.407Z,8.57
2019-04-26T18:22:28.393Z,8.70
2019-04-26T18:24:58.922Z,9.87
2019-04-26T18:27:29.981Z,9.97
2019-04-26T18:30:06.585Z,9.33
2019-04-26T18:32:33.939Z,9.37
2019-04-26T18:35:01.768Z,9.00
2019-04-26T18:37:31.132Z,9.60
2019-04-26T18:40:02.040Z,9.53
2019-04-26T18:42:33.343Z,10.73
2019-04-26T18:45:03.626Z,10.17
2019-04-26T18:47:37.635Z,9.67
2019-04-26T18:50:07.347Z,10.33
2019-04-26T18:52:39.065Z,10.03
2019-04-26T18:55:16.278Z,9.90
2019-04-26T18:57:47.356Z,10.23
2019-04-26T19:00:26.572Z,11.03
2019-04-26T19:02:55.544Z,12.73
2019-04-26T19:05:29.820Z,13.90
2019-04-26T19:07:56.014Z,15.60
2019-04-26T19:10:28.939Z,16.10
2019-04-26T19:13:00.198Z,14.80
2019-04-26T19:15:54.119Z,12.00
2019-04-26T19:18:52.927Z,11.30
2019-04-26T19:21:38.687Z,11.10
2019-04-26T19:24:07.302Z,10.07
2019-04-26T19:26:35.043Z,10.33
2019-04-26T19:29:15.438Z,9.63
2019-04-26T19:31:35.848Z,9.97
2019-04-26T19:34:05.228Z,10.77
2019-04-26T19:36:34.619Z,10.53
2019-04-26T19:39:05.357Z,9.87
2019-04-26T19:41:34.690Z,10.47
2019-04-26T19:44:04.292Z,9.23
2019-04-26T19:46:42.616Z,9.87
2019-04-26T19:49:33.795Z,9.47
2019-04-26T19:52:13.278Z,9.27
2019-04-26T19:54:46.556Z,9.97
2019-04-26T19:57:23.790Z,9.70
2019-04-26T19:59:52.990Z,9.43
2019-04-26T20:02:22.361Z,9.43
2019-04-26T20:04:51.718Z,8.87
2019-04-26T20:07:24.151Z,9.87
2019-04-26T20:09:52.450Z,9.80
2019-04-26T20:12:25.007Z,10.47
2019-04-26T20:14:58.051Z,9.50
2019-04-26T20:17:24.009Z,9.33
2019-04-26T20:19:54.482Z,9.40
2019-04-26T20:22:28.266Z,10.20
2019-04-26T20:24:57.441Z,10.60
2019-04-26T20:27:27.999Z,10.70
2019-04-26T20:29:57.562Z,10.57
2019-04-26T20:32:36.493Z,10.67
2019-04-26T20:35:13.237Z,9.90
2019-04-26T20:37:45.150Z,9.77
2019-04-26T20:40:22.193Z,9.60
2019-04-26T20:42:47.364Z,10.13
2019-04-26T20:45:17.290Z,9.17
2019-04-26T20:47:51.341Z,9.93
2019-04-26T20:50:17.784Z,9.60
2019-04-26T20:52:47.141Z,10.20
2019-04-26T20:55:16.485Z,9.83
2019-04-26T20:57:45.839Z,9.83
2019-04-26T21:00:17.047Z,10.50
2019-04-26T21:02:46.454Z,10.13
2019-04-26T21:05:15.798Z,9.50
2019-04-26T21:07:49.131Z,10.87
2019-04-26T21:10:21.822Z,9.50
2019-04-26T21:12:51.607Z,9.30
2019-04-26T21:15:20.370Z,9.40
2019-04-26T21:17:49.724Z,9.50
2019-04-26T21:20:19.070Z,10.13
2019-04-26T21:22:48.437Z,9.97
2019-04-26T21:25:32.570Z,10.13
2019-04-26T21:28:15.939Z,10.47
2019-04-26T21:31:03.519Z,9.23
2019-04-26T21:33:58.947Z,9.63
2019-04-26T21:36:46.104Z,9.33
2019-04-26T21:39:47.319Z,9.27
2019-04-26T21:42:17.169Z,10.90
2019-04-26T21:44:51.561Z,9.37
2019-04-26T21:47:16.771Z,9.87
2019-04-26T21:49:46.144Z,8.60
2019-04-26T21:52:15.476Z,9.33
2019-04-26T21:54:48.324Z,9.83
2019-04-26T21:57:18.326Z,9.43
2019-04-26T21:59:49.046Z,9.63
2019-04-26T22:02:18.302Z,10.00
2019-04-26T22:04:47.768Z,9.57
2019-04-26T22:07:17.239Z,10.93
2019-04-26T22:10:20.680Z,9.53
2019-04-26T22:12:50.119Z,9.97
2019-04-26T22:15:37.496Z,9.77
2019-04-26T22:18:14.911Z,9.67
2019-04-26T22:20:52.790Z,9.60
2019-04-26T22:23:30.055Z,9.77
2019-04-26T22:26:00.143Z,10.57
2019-04-26T22:28:35.458Z,10.40
2019-04-26T22:31:06.881Z,10.13
2019-04-26T22:33:34.229Z,10.50
2019-04-26T22:36:04.083Z,10.40
2019-04-26T22:38:34.095Z,11.07
2019-04-26T22:41:03.705Z,10.07
2019-04-26T22:44:00.866Z,10.43
2019-04-26T22:46:48.647Z,10.53
2019-04-26T22:49:13.283Z,10.90
2019-04-26T22:51:43.545Z,11.67
2019-04-26T22:54:13.002Z,11.03
2019-04-26T22:56:45.694Z,10.47
2019-04-26T22:59:13.963Z,10.43
2019-04-26T23:01:44.736Z,9.43
2019-04-26T23:04:16.212Z,9.90
2019-04-26T23:06:46.848Z,10.27
2019-04-26T23:09:20.434Z,9.73
2019-04-26T23:11:55.639Z,10.30
2019-04-26T23:15:00.654Z,9.73
2019-04-26T23:17:48.927Z,10.03
2019-04-26T23:20:46.467Z,9.57
2019-04-26T23:23:20.694Z,10.23
2019-04-26T23:25:54.102Z,9.93
2019-04-26T23:28:23.517Z,10.50
2019-04-26T23:30:53.224Z,10.20
2019-04-26T23:33:23.956Z,10.40
2019-04-26T23:35:53.447Z,10.40
2019-04-26T23:38:23.451Z,10.83
2019-04-26T23:41:01.056Z,9.80
2019-04-26T23:43:25.599Z,10.87
2019-04-26T23:45:55.191Z,9.53
2019-04-26T23:48:24.577Z,9.47
2019-04-26T23:50:54.353Z,10.07
2019-04-26T23:53:29.545Z,9.43
2019-04-26T23:56:04.948Z,10.17
2019-04-26T23:58:34.388Z,9.50
